createdAt,value
2018-03-17T00:00:15.498Z,98.20
2018-03-17T00:02:42.379Z,98.20
2018-03-17T00:05:09.208Z,97.80
2018-03-17T00:07:36.770Z,97.50
2018-03-17T00:10:03.626Z,97.50
2018-03-17T00:12:30.562Z,97.80
2018-03-17T00:14:58.106Z,97.80
2018-03-17T00:17:25.695Z,97.40
2018-03-17T00:19:53.271Z,97.50
2018-03-17T00:22:20.130Z,97.50
2018-03-17T00:24:46.957Z,97.50
2018-03-17T00:27:13.841Z,97.40
2018-03-17T00:29:40.659Z,97.50
2018-03-17T00:32:07.519Z,97.40
2018-03-17T00:34:34.383Z,96.90
2018-03-17T00:37:01.974Z,97.00
2018-03-17T00:39:28.834Z,97.00
2018-03-17T00:41:55.722Z,97.40
2018-03-17T00:44:22.540Z,97.30
2018-03-17T00:46:49.370Z,97.30
2018-03-17T00:49:16.299Z,97.20
2018-03-17T00:51:43.191Z,97.20
2018-03-17T00:54:10.025Z,97.30
2018-03-17T00:56:36.915Z,96.90
2018-03-17T00:59:04.458Z,97.00
2018-03-17T01:01:32.110Z,96.90
2018-03-17T01:03:58.959Z,96.90
2018-03-17T01:06:26.589Z,97.10
2018-03-17T01:08:53.438Z,97.00
2018-03-17T01:11:20.279Z,97.20
2018-03-17T01:13:47.113Z,97.10
2018-03-17T01:16:13.957Z,97.10
2018-03-17T01:18:40.780Z,97.10
2018-03-17T01:21:07.642Z,97.10
2018-03-17T01:23:35.231Z,96.80
2018-03-17T01:26:02.855Z,96.90
2018-03-17T01:28:29.678Z,96.90
2018-03-17T01:30:56.599Z,96.90
2018-03-17T01:33:23.455Z,97.00
2018-03-17T01:35:50.312Z,97.00
2018-03-17T01:38:17.146Z,97.10
2018-03-17T01:40:44.039Z,97.00
2018-03-17T01:43:10.863Z,97.20
2018-03-17T01:45:38.461Z,97.10
2018-03-17T01:48:06.064Z,97.60
2018-03-17T01:50:32.923Z,97.50
2018-03-17T01:52:59.810Z,97.50
2018-03-17T01:55:26.601Z,97.50
2018-03-17T01:57:53.414Z,97.50
2018-03-17T02:00:20.333Z,97.20
2018-03-17T02:02:47.916Z,96.90
2018-03-17T02:05:14.740Z,96.90
2018-03-17T02:07:42.335Z,96.80
2018-03-17T02:10:09.166Z,96.80
2018-03-17T02:12:36.047Z,96.90
2018-03-17T02:15:02.944Z,97.10
2018-03-17T02:17:29.771Z,97.10
2018-03-17T02:19:57.340Z,97.60
2018-03-17T02:22:24.975Z,97.80
2018-03-17T02:24:51.811Z,97.70
2018-03-17T02:27:18.651Z,97.70
2018-03-17T02:29:45.510Z,97.30
2018-03-17T02:32:12.422Z,97.20
2018-03-17T02:34:39.247Z,97.30
2018-03-17T02:37:06.085Z,97.40
2018-03-17T02:39:32.901Z,97.30
2018-03-17T02:41:59.791Z,97.40
2018-03-17T02:44:26.644Z,97.30
2018-03-17T02:46:53.493Z,97.40
2018-03-17T02:49:21.040Z,97.70
2018-03-17T02:51:47.923Z,97.70
2018-03-17T02:54:15.503Z,97.90
2018-03-17T02:56:42.310Z,97.90
2018-03-17T02:59:09.138Z,97.90
2018-03-17T03:01:35.971Z,97.50
2018-03-17T03:04:02.832Z,97.40
2018-03-17T03:06:29.658Z,97.00
2018-03-17T03:08:56.522Z,97.20
2018-03-17T03:11:23.450Z,97.30
2018-03-17T03:13:50.300Z,97.40
2018-03-17T03:16:17.198Z,97.30
2018-03-17T03:18:44.023Z,97.40
2018-03-17T03:21:10.918Z,97.00
2018-03-17T03:23:37.755Z,97.00
2018-03-17T03:26:04.627Z,97.20
2018-03-17T03:28:31.452Z,97.10
2018-03-17T03:30:58.398Z,97.50
2018-03-17T03:33:25.238Z,97.50
2018-03-17T03:35:52.835Z,97.30
2018-03-17T03:38:20.403Z,97.60
2018-03-17T03:40:48.018Z,97.30
2018-03-17T03:43:14.863Z,97.30
2018-03-17T03:45:41.754Z,97.70
2018-03-17T03:48:08.591Z,97.30
2018-03-17T03:50:36.206Z,97.00
2018-03-17T03:53:03.058Z,97.00
2018-03-17T03:55:29.890Z,97.30
2018-03-17T03:57:56.731Z,97.50
2018-03-17T04:00:23.586Z,97.40
2018-03-17T04:02:51.207Z,97.30
2018-03-17T04:05:18.031Z,97.30
2018-03-17T04:07:44.882Z,97.70
2018-03-17T04:10:11.719Z,97.60
2018-03-17T04:12:38.631Z,97.40
2018-03-17T04:15:05.511Z,97.50
2018-03-17T04:17:32.379Z,97.60
2018-03-17T04:19:59.206Z,97.60
2018-03-17T04:22:26.290Z,98.00
2018-03-17T04:24:53.134Z,98.90
2018-03-17T04:27:19.955Z,99.50
2018-03-17T04:29:47.012Z,99.90
2018-03-17T04:32:13.863Z,99.90
2018-03-17T04:34:40.679Z,99.90
2018-03-17T04:37:07.526Z,99.90
2018-03-17T04:39:34.342Z,99.90
2018-03-17T04:42:01.230Z,99.90
2018-03-17T04:44:28.098Z,99.70
2018-03-17T04:46:55.673Z,99.90
2018-03-17T04:49:23.240Z,99.90
2018-03-17T04:51:50.157Z,99.90
2018-03-17T04:54:17.010Z,99.10
2018-03-17T04:56:43.826Z,99.20
2018-03-17T04:59:10.690Z,99.10
2018-03-17T05:01:38.339Z,99.10
2018-03-17T05:04:05.191Z,99.10
2018-03-17T05:06:32.792Z,99.00
2018-03-17T05:08:59.663Z,99.00
2018-03-17T05:11:26.510Z,98.60
2018-03-17T05:13:53.366Z,98.60
2018-03-17T05:16:20.915Z,98.50
2018-03-17T05:18:47.759Z,98.50
2018-03-17T05:21:14.796Z,98.50
2018-03-17T05:23:41.639Z,98.30
2018-03-17T05:26:08.479Z,98.50
2018-03-17T05:28:35.347Z,98.90
2018-03-17T05:31:02.287Z,98.70
2018-03-17T05:33:29.117Z,98.60
2018-03-17T05:35:55.984Z,98.40
2018-03-17T05:38:23.605Z,98.20
2018-03-17T05:40:50.497Z,98.20
2018-03-17T05:43:17.351Z,97.80
2018-03-17T05:45:44.951Z,98.10
2018-03-17T05:48:11.782Z,98.10
2018-03-17T05:50:38.682Z,98.20
2018-03-17T05:53:06.256Z,98.00
2018-03-17T05:55:33.864Z,97.80
2018-03-17T05:58:00.699Z,97.70
2018-03-17T06:00:27.599Z,97.60
2018-03-17T06:02:55.204Z,97.50
2018-03-17T06:05:22.031Z,97.50
2018-03-17T06:07:48.870Z,97.50
2018-03-17T06:10:15.759Z,97.30
2018-03-17T06:12:42.611Z,97.30
2018-03-17T06:15:09.446Z,96.80
2018-03-17T06:17:36.283Z,97.00
2018-03-17T06:20:03.887Z,96.30
2018-03-17T06:22:31.502Z,96.30
2018-03-17T06:24:58.353Z,96.30
2018-03-17T06:27:25.219Z,96.10
2018-03-17T06:29:52.086Z,96.30
2018-03-17T06:32:19.695Z,96.40
2018-03-17T06:34:46.680Z,96.40
2018-03-17T06:37:13.514Z,96.10
2018-03-17T06:39:41.094Z,96.00
2018-03-17T06:42:08.006Z,96.00
2018-03-17T06:44:34.853Z,95.10
2018-03-17T06:47:01.675Z,95.40
2018-03-17T06:49:28.523Z,95.40
2018-03-17T06:51:55.489Z,95.40
2018-03-17T06:54:22.294Z,94.80
2018-03-17T06:56:49.111Z,93.40
2018-03-17T06:59:15.954Z,93.00
2018-03-17T07:01:42.901Z,93.30
2018-03-17T07:04:09.732Z,93.60
2018-03-17T07:06:36.591Z,93.80
2018-03-17T07:09:03.503Z,93.20
2018-03-17T07:11:30.405Z,93.30
2018-03-17T07:13:58.188Z,93.80
2018-03-17T07:16:25.023Z,93.80
2018-03-17T07:18:51.883Z,93.70
2018-03-17T07:21:18.835Z,93.80
2018-03-17T07:23:46.731Z,93.40
2018-03-17T07:26:13.672Z,93.40
2018-03-17T07:28:40.547Z,93.90
2018-03-17T07:31:07.509Z,94.30
2018-03-17T07:33:34.363Z,94.90
2018-03-17T07:36:01.231Z,95.10
2018-03-17T07:38:28.810Z,94.60
2018-03-17T07:40:55.734Z,94.50
2018-03-17T07:43:22.596Z,94.50
2018-03-17T07:45:49.464Z,94.80
2018-03-17T07:48:16.321Z,94.60
2018-03-17T07:50:44.791Z,94.10
2018-03-17T07:53:11.627Z,94.10
2018-03-17T07:55:38.435Z,94.20
2018-03-17T07:58:05.284Z,94.00
2018-03-17T08:00:32.168Z,93.90
2018-03-17T08:02:59.037Z,94.20
2018-03-17T08:05:32.892Z,94.20
2018-03-17T08:07:59.722Z,94.30
2018-03-17T08:10:26.603Z,94.00
2018-03-17T08:12:53.431Z,94.00
2018-03-17T08:15:20.291Z,93.80
2018-03-17T08:17:47.146Z,94.10
2018-03-17T08:20:13.994Z,93.90
2018-03-17T08:22:40.818Z,94.10
2018-03-17T08:25:07.674Z,94.60
2018-03-17T08:27:34.564Z,94.40
2018-03-17T08:30:01.400Z,94.60
2018-03-17T08:32:28.314Z,94.60
2018-03-17T08:34:55.894Z,95.10
2018-03-17T08:37:22.726Z,94.80
2018-03-17T08:39:50.334Z,95.10
2018-03-17T08:42:17.196Z,95.10
2018-03-17T08:44:44.062Z,95.70
2018-03-17T08:47:10.894Z,95.60
2018-03-17T08:49:37.776Z,95.90
2018-03-17T08:52:04.677Z,96.10
2018-03-17T08:54:31.517Z,95.80
2018-03-17T08:56:58.384Z,96.40
2018-03-17T08:59:25.232Z,96.10
2018-03-17T09:01:52.858Z,96.10
2018-03-17T09:04:19.691Z,96.10
2018-03-17T09:06:46.530Z,96.20
2018-03-17T09:09:13.347Z,96.40
2018-03-17T09:11:41.978Z,96.60
2018-03-17T09:14:08.832Z,96.60
2018-03-17T09:16:36.420Z,97.00
2018-03-17T09:19:03.287Z,97.10
2018-03-17T09:21:30.197Z,96.60
2018-03-17T09:23:57.775Z,96.70
2018-03-17T09:26:24.611Z,96.70
2018-03-17T09:28:51.480Z,96.60
2018-03-17T09:31:19.082Z,96.30
2018-03-17T09:33:45.916Z,96.30
2018-03-17T09:36:12.771Z,96.10
2018-03-17T09:38:39.595Z,96.50
2018-03-17T09:41:06.467Z,96.70
2018-03-17T09:43:34.197Z,96.40
2018-03-17T09:46:01.014Z,96.00
2018-03-17T09:48:27.881Z,96.60
2018-03-17T09:50:54.894Z,96.60
2018-03-17T09:53:21.740Z,97.00
2018-03-17T09:55:48.686Z,96.60
2018-03-17T09:58:15.801Z,96.70
2018-03-17T10:00:42.987Z,96.60
2018-03-17T10:03:10.767Z,96.90
2018-03-17T10:05:37.581Z,96.90
2018-03-17T10:08:04.604Z,97.50
2018-03-17T10:10:31.602Z,97.50
2018-03-17T10:12:58.591Z,96.80
2018-03-17T10:15:25.698Z,96.80
2018-03-17T10:17:53.358Z,96.30
2018-03-17T10:20:20.386Z,96.30
2018-03-17T10:22:47.328Z,96.10
2018-03-17T10:25:14.275Z,96.40
2018-03-17T10:27:41.172Z,96.80
2018-03-17T10:30:08.171Z,96.90
2018-03-17T10:32:35.260Z,96.60
2018-03-17T10:35:02.983Z,95.70
2018-03-17T10:37:29.951Z,95.70
2018-03-17T10:39:56.826Z,95.90
2018-03-17T10:42:23.684Z,96.40
2018-03-17T10:44:50.785Z,96.70
2018-03-17T10:47:18.413Z,96.30
2018-03-17T10:49:45.454Z,96.40
2018-03-17T10:52:12.566Z,96.00
2018-03-17T10:54:40.323Z,95.10
2018-03-17T10:57:07.251Z,95.10
2018-03-17T10:59:34.382Z,94.60
2018-03-17T11:02:04.374Z,95.00
2018-03-17T11:04:31.964Z,94.60
2018-03-17T11:06:58.809Z,94.50
2018-03-17T11:09:25.657Z,95.20
2018-03-17T11:11:52.546Z,95.00
2018-03-17T11:14:20.165Z,95.00
2018-03-17T11:16:47.104Z,95.00
2018-03-17T11:19:13.920Z,95.20
2018-03-17T11:21:41.554Z,95.30
2018-03-17T11:24:08.366Z,95.30
2018-03-17T11:26:35.179Z,95.90
2018-03-17T11:29:02.047Z,95.50
2018-03-17T11:31:29.042Z,95.30
2018-03-17T11:33:55.887Z,95.10
2018-03-17T11:36:22.723Z,95.90
2018-03-17T11:38:50.287Z,95.80
2018-03-17T11:41:18.316Z,95.60
2018-03-17T11:43:45.267Z,95.60
2018-03-17T11:46:12.095Z,96.10
2018-03-17T11:48:38.982Z,95.70
2018-03-17T11:51:05.886Z,94.60
2018-03-17T11:53:32.758Z,95.20
2018-03-17T11:56:00.377Z,94.80
2018-03-17T11:58:27.206Z,94.80
2018-03-17T12:00:54.163Z,95.00
2018-03-17T12:03:20.991Z,95.00
2018-03-17T12:05:47.842Z,94.60
2018-03-17T12:08:14.735Z,94.80
2018-03-17T12:10:42.383Z,95.30
2018-03-17T12:13:09.242Z,94.90
2018-03-17T12:15:36.045Z,95.70
2018-03-17T12:18:02.919Z,95.60
2018-03-17T12:20:29.763Z,95.00
2018-03-17T12:22:56.602Z,94.90
2018-03-17T12:25:23.444Z,95.20
2018-03-17T12:27:50.275Z,95.70
2018-03-17T12:30:17.111Z,95.20
2018-03-17T12:32:44.005Z,95.40
2018-03-17T12:35:11.595Z,95.30
2018-03-17T12:37:38.439Z,95.30
2018-03-17T12:40:05.500Z,95.90
2018-03-17T12:42:32.355Z,96.00
2018-03-17T12:44:59.179Z,96.40
2018-03-17T12:47:26.051Z,95.70
2018-03-17T12:49:53.391Z,96.20
2018-03-17T12:52:20.339Z,95.80
2018-03-17T12:54:47.948Z,96.30
2018-03-17T12:57:14.942Z,96.30
2018-03-17T12:59:41.779Z,96.50
2018-03-17T13:02:09.459Z,96.20
2018-03-17T13:04:36.651Z,96.20
2018-03-17T13:07:03.471Z,96.30
2018-03-17T13:09:30.328Z,96.50
2018-03-17T13:11:57.271Z,96.50
2018-03-17T13:14:24.126Z,96.60
2018-03-17T13:16:50.977Z,95.90
2018-03-17T13:19:27.022Z,96.30
2018-03-17T13:21:53.931Z,96.60
2018-03-17T13:24:20.786Z,96.40
2018-03-17T13:26:59.876Z,97.40
2018-03-17T13:29:26.716Z,96.30
2018-03-17T13:31:53.619Z,96.10
2018-03-17T13:34:21.191Z,96.30
2018-03-17T13:37:00.271Z,96.30
2018-03-17T13:39:27.078Z,96.60
2018-03-17T13:41:53.963Z,97.00
2018-03-17T13:44:20.814Z,96.80
2018-03-17T13:46:48.459Z,96.30
2018-03-17T13:49:15.359Z,96.30
2018-03-17T13:51:42.287Z,96.40
2018-03-17T13:54:09.135Z,96.70
2018-03-17T13:56:36.046Z,97.10
2018-03-17T13:59:03.643Z,96.30
2018-03-17T14:01:30.555Z,96.30
2018-03-17T14:03:57.419Z,96.80
2018-03-17T14:06:24.359Z,96.10
2018-03-17T14:08:51.234Z,96.20
2018-03-17T14:11:18.146Z,96.50
2018-03-17T14:13:45.745Z,96.40
2018-03-17T14:16:12.572Z,96.40
2018-03-17T14:18:39.427Z,97.00
2018-03-17T14:21:06.322Z,96.60
2018-03-17T14:23:33.251Z,96.30
2018-03-17T14:26:00.879Z,96.30
2018-03-17T14:28:27.704Z,96.30
2018-03-17T14:30:55.355Z,96.40
2018-03-17T14:33:22.231Z,96.40
2018-03-17T14:35:49.090Z,96.50
2018-03-17T14:38:15.928Z,96.70
2018-03-17T14:40:42.940Z,96.70
2018-03-17T14:43:09.828Z,96.80
2018-03-17T14:45:36.730Z,96.40
2018-03-17T14:48:03.639Z,96.30
2018-03-17T14:50:31.308Z,96.10
2018-03-17T14:52:58.927Z,96.30
2018-03-17T14:55:25.770Z,96.20
2018-03-17T14:57:59.680Z,96.20
2018-03-17T15:00:26.500Z,96.60
2018-03-17T15:02:53.335Z,96.90
2018-03-17T15:05:21.351Z,96.40
2018-03-17T15:07:48.207Z,96.40
2018-03-17T15:10:15.640Z,96.20
2018-03-17T15:12:42.548Z,96.00
2018-03-17T15:15:09.503Z,96.40
2018-03-17T15:17:36.374Z,96.70
2018-03-17T15:20:04.093Z,96.50
2018-03-17T15:22:31.396Z,96.00
2018-03-17T15:25:00.093Z,96.10
2018-03-17T15:27:27.683Z,95.80
2018-03-17T15:29:54.566Z,96.00
2018-03-17T15:32:21.491Z,96.00
2018-03-17T15:34:48.359Z,95.90
2018-03-17T15:37:15.285Z,95.30
2018-03-17T15:39:42.388Z,95.10
2018-03-17T15:42:10.047Z,95.60
2018-03-17T15:44:36.899Z,95.50
2018-03-17T15:47:03.801Z,95.40
2018-03-17T15:49:30.662Z,95.80
2018-03-17T15:51:57.619Z,96.10
2018-03-17T15:54:24.462Z,96.10
2018-03-17T15:56:51.499Z,95.50
2018-03-17T15:59:19.098Z,96.30
2018-03-17T16:01:46.036Z,96.30
2018-03-17T16:04:12.910Z,96.10
2018-03-17T16:06:39.742Z,95.50
2018-03-17T16:09:06.570Z,96.20
2018-03-17T16:11:34.214Z,96.80
2018-03-17T16:14:01.803Z,96.60
2018-03-17T16:16:28.670Z,96.90
2018-03-17T16:18:55.516Z,96.70
2018-03-17T16:21:22.382Z,96.10
2018-03-17T16:23:49.240Z,96.20
2018-03-17T16:26:16.134Z,95.70
2018-03-17T16:28:43.012Z,96.30
2018-03-17T16:31:09.884Z,96.80
2018-03-17T16:33:37.511Z,96.40
2018-03-17T16:36:04.386Z,96.40
2018-03-17T16:38:31.240Z,96.70
2018-03-17T16:40:58.871Z,97.10
2018-03-17T16:43:25.767Z,97.00
2018-03-17T16:45:52.599Z,96.90
2018-03-17T16:48:19.430Z,97.10
2018-03-17T16:50:47.092Z,96.90
2018-03-17T16:53:14.682Z,96.40
2018-03-17T16:55:41.542Z,96.40
2018-03-17T16:58:08.408Z,96.00
2018-03-17T17:00:35.267Z,96.40
2018-03-17T17:03:02.133Z,96.80
2018-03-17T17:05:29.763Z,97.00
2018-03-17T17:07:56.586Z,97.00
2018-03-17T17:10:23.416Z,96.90
2018-03-17T17:12:51.042Z,97.00
2018-03-17T17:15:18.598Z,97.00
2018-03-17T17:17:46.194Z,96.60
2018-03-17T17:20:13.079Z,96.60
2018-03-17T17:22:40.006Z,97.00
2018-03-17T17:25:06.863Z,97.30
2018-03-17T17:27:34.727Z,96.80
2018-03-17T17:30:01.593Z,96.80
2018-03-17T17:32:28.499Z,96.70
2018-03-17T17:34:55.332Z,96.80
2018-03-17T17:37:22.240Z,96.70
2018-03-17T17:39:49.839Z,97.00
2018-03-17T17:42:16.683Z,96.90
2018-03-17T17:44:43.555Z,97.40
2018-03-17T17:47:10.378Z,97.20
2018-03-17T17:49:37.417Z,97.00
2018-03-17T17:52:04.387Z,96.30
2018-03-17T17:54:31.963Z,96.80
2018-03-17T17:56:59.559Z,96.70
2018-03-17T17:59:26.383Z,96.70
2018-03-17T18:01:53.285Z,95.70
2018-03-17T18:04:20.158Z,95.90
2018-03-17T18:06:46.997Z,95.80
2018-03-17T18:09:14.570Z,96.60
2018-03-17T18:11:42.198Z,95.90
2018-03-17T18:14:09.794Z,96.80
2018-03-17T18:16:36.636Z,96.80
2018-03-17T18:19:03.467Z,97.10
2018-03-17T18:21:31.108Z,97.10
2018-03-17T18:23:58.716Z,97.00
2018-03-17T18:26:25.546Z,97.00
2018-03-17T18:28:53.150Z,96.10
2018-03-17T18:31:19.995Z,96.10
2018-03-17T18:33:46.827Z,96.50
2018-03-17T18:36:13.687Z,96.40
2018-03-17T18:38:40.511Z,96.70
2018-03-17T18:41:07.363Z,96.50
2018-03-17T18:43:34.247Z,96.30
2018-03-17T18:46:01.071Z,96.40
2018-03-17T18:48:27.931Z,96.40
2018-03-17T18:50:55.607Z,96.90
2018-03-17T18:53:22.433Z,96.90
2018-03-17T18:55:49.279Z,97.40
2018-03-17T18:58:16.858Z,96.50
2018-03-17T19:00:43.791Z,96.50
2018-03-17T19:03:10.599Z,96.40
2018-03-17T19:05:37.430Z,96.20
2018-03-17T19:08:04.471Z,97.00
2018-03-17T19:10:31.300Z,96.80
2018-03-17T19:12:58.128Z,96.80
2018-03-17T19:15:25.002Z,96.80
2018-03-17T19:17:51.852Z,96.60
2018-03-17T19:20:19.659Z,96.80
2018-03-17T19:22:47.310Z,97.20
2018-03-17T19:25:14.927Z,97.30
2018-03-17T19:27:42.706Z,97.30
2018-03-17T19:30:09.554Z,96.90
2018-03-17T19:32:37.589Z,97.00
2018-03-17T19:35:05.132Z,96.80
2018-03-17T19:37:31.950Z,96.80
2018-03-17T19:40:00.568Z,96.80
2018-03-17T19:42:42.363Z,96.80
2018-03-17T19:45:09.211Z,96.40
2018-03-17T19:47:36.040Z,96.10
2018-03-17T19:50:02.889Z,96.60
2018-03-17T19:52:29.811Z,96.40
2018-03-17T19:54:56.623Z,96.80
2018-03-17T19:57:23.482Z,96.60
2018-03-17T19:59:51.094Z,96.70
2018-03-17T20:02:17.993Z,96.70
2018-03-17T20:04:44.863Z,96.70
2018-03-17T20:07:12.201Z,96.90
2018-03-17T20:09:39.035Z,97.00
2018-03-17T20:12:05.966Z,96.90
2018-03-17T20:14:33.526Z,96.90
2018-03-17T20:17:00.339Z,96.90
2018-03-17T20:19:27.672Z,96.90
2018-03-17T20:21:54.584Z,96.00
2018-03-17T20:24:22.148Z,96.90
2018-03-17T20:26:49.723Z,95.80
2018-03-17T20:29:16.551Z,95.80
2018-03-17T20:31:44.175Z,97.20
2018-03-17T20:34:11.027Z,97.20
2018-03-17T20:36:37.859Z,96.70
2018-03-17T20:39:05.284Z,96.00
2018-03-17T20:41:32.206Z,96.60
2018-03-17T20:43:59.876Z,96.80
2018-03-17T20:46:26.695Z,96.70
2018-03-17T20:48:54.259Z,97.50
2018-03-17T20:51:22.903Z,97.30
2018-03-17T20:53:49.713Z,97.20
2018-03-17T20:56:16.549Z,96.60
2018-03-17T20:58:43.384Z,97.10
2018-03-17T21:01:10.271Z,96.80
2018-03-17T21:03:37.143Z,96.00
2018-03-17T21:06:03.938Z,97.00
2018-03-17T21:08:30.766Z,96.50
2018-03-17T21:10:57.683Z,96.50
2018-03-17T21:13:24.575Z,96.50
2018-03-17T21:15:51.407Z,96.10
2018-03-17T21:18:18.287Z,95.60
2018-03-17T21:23:34.342Z,96.10
2018-03-17T21:26:01.212Z,96.50
2018-03-17T21:28:28.037Z,96.20
2018-03-17T21:30:54.921Z,96.40
2018-03-17T21:33:21.766Z,96.70
2018-03-17T21:35:48.573Z,97.00
2018-03-17T21:38:15.428Z,96.50
2018-03-17T21:40:42.308Z,96.90
2018-03-17T21:43:09.923Z,96.70
2018-03-17T21:45:36.799Z,96.70
2018-03-17T21:48:03.671Z,96.10
2018-03-17T21:50:30.565Z,96.20
2018-03-17T21:52:57.375Z,96.30
2018-03-17T21:55:24.181Z,97.00
2018-03-17T21:57:51.009Z,97.20
2018-03-17T22:00:17.873Z,97.20
2018-03-17T22:02:44.805Z,96.60
2018-03-17T22:05:11.608Z,96.20
2018-03-17T22:07:38.483Z,96.10
2018-03-17T22:10:05.361Z,96.70
2018-03-17T22:12:32.268Z,96.90
2018-03-17T22:14:59.090Z,97.20
2018-03-17T22:17:25.975Z,96.70
2018-03-17T22:19:52.832Z,96.60
2018-03-17T22:22:20.442Z,96.40
2018-03-17T22:24:47.351Z,96.40
2018-03-17T22:27:14.189Z,96.70
2018-03-17T22:29:41.061Z,96.80
2018-03-17T22:32:07.916Z,96.50
2018-03-17T22:34:34.764Z,96.90
2018-03-17T22:37:01.618Z,96.90
2018-03-17T22:39:28.463Z,96.60
2018-03-17T22:41:55.318Z,96.60
2018-03-17T22:44:22.154Z,96.40
2018-03-17T22:46:49.015Z,96.30
2018-03-17T22:49:15.871Z,96.30
2018-03-17T22:51:43.479Z,96.00
2018-03-17T22:54:10.348Z,96.00
2018-03-17T22:56:37.163Z,96.20
2018-03-17T22:59:04.002Z,97.00
2018-03-17T23:01:30.884Z,96.60
2018-03-17T23:03:57.682Z,97.20
2018-03-17T23:06:24.495Z,97.00
2018-03-17T23:08:51.369Z,96.90
2018-03-17T23:11:18.259Z,96.50
2018-03-17T23:13:45.832Z,97.00
2018-03-17T23:16:13.050Z,97.00
2018-03-17T23:18:39.891Z,97.40
2018-03-17T23:21:06.843Z,97.20
2018-03-17T23:23:33.697Z,97.20
2018-03-17T23:26:00.566Z,96.80
2018-03-17T23:28:27.411Z,96.90
2018-03-17T23:30:54.384Z,97.10
2018-03-17T23:33:21.245Z,97.60
2018-03-17T23:35:48.107Z,97.20
2018-03-17T23:38:14.931Z,97.70
2018-03-17T23:40:41.928Z,97.60
2018-03-17T23:43:08.842Z,97.50
2018-03-17T23:45:36.547Z,97.50
2018-03-17T23:48:03.458Z,97.50
2018-03-17T23:50:30.355Z,97.80
2018-03-17T23:52:57.230Z,97.70
2018-03-17T23:55:24.108Z,97.20
2018-03-17T23:57:51.729Z,97.00
